PWSweather.com
Personal Weather Stations
Station Observations
GEELONGWX1
Bell Post Hill, GeelongAU

Bell Post HillGeelongAU

Lat: -38.101, Lon: 144.326

Elevation: 204

Station Type: Davis Vantage Pro2

http://www.geelongweather.com

High Low Average
Temperature 78.8°F26.0°C 58.2°F14.6°C 67.1°F19.5°C
Dew Point 62.5°F16.9°C 51.2°F10.7°C 57.9°F14.4°C
Winds 9.2 mph 14.8 kmh Calm Calm 3.0 mph ESE4.8 kmh ESE
Wind Gusts 17.3 mph27.8 kmh -- 6.0 mph9.7 kmh
Humidity 86% 55% 73%
Pressure 30.26 in1024.7 mb 30.17 in1021.7 mb -
Precipitation 0.00 in0.0 mm - -
Hour Temp Dew Point Humidity Winds Wind Gusts Pressure Precip Precip Rate Daily Precip Total
12:00 AM 60.2°F15.7°C 51.9°F11.1°C 74% 1.2 mph SSE1.9 kmh SSE 2.3 mph3.7 kmh 30.25 in1024.4 mb - 0.00 in0.0 mm 0.00 in0.0 mm
12:10 AM 60.0°F15.6°C 51.7°F10.9°C 74% 1.2 mph S1.9 kmh S 2.3 mph3.7 kmh 30.25 in1024.4 mb - 0.00 in0.0 mm 0.00 in0.0 mm
12:20 AM 59.8°F15.4°C 51.5°F10.8°C 74% 1.2 mph S1.9 kmh S 1.2 mph1.9 kmh 30.25 in1024.4 mb - 0.00 in0.0 mm 0.00 in0.0 mm
12:30 AM 59.6°F15.3°C 51.3°F10.7°C 74% 1.2 mph S1.9 kmh S 1.2 mph1.9 kmh 30.25 in1024.4 mb - 0.00 in0.0 mm 0.00 in0.0 mm
12:40 AM 59.4°F15.2°C 51.5°F10.8°C 75% Calm Calm 1.2 mph1.9 kmh 30.24 in1024.0 mb - 0.00 in0.0 mm 0.00 in0.0 mm
12:50 AM 59.2°F15.1°C 51.3°F10.7°C 75% 1.2 mph SW1.9 kmh SW 1.2 mph1.9 kmh 30.24 in1024.0 mb - 0.00 in0.0 mm 0.00 in0.0 mm
01:00 AM 59.1°F15.1°C 51.2°F10.7°C 75% 1.2 mph SW1.9 kmh SW 2.3 mph3.7 kmh 30.24 in1024.0 mb - 0.00 in0.0 mm 0.00 in0.0 mm
01:10 AM 59.0°F15.0°C 51.4°F10.8°C 76% Calm Calm 1.2 mph1.9 kmh 30.24 in1024.0 mb - 0.00 in0.0 mm 0.00 in0.0 mm
01:20 AM 58.9°F14.9°C 51.3°F10.7°C 76% 1.2 mph SW1.9 kmh SW 1.2 mph1.9 kmh 30.24 in1024.0 mb - 0.00 in0.0 mm 0.00 in0.0 mm
01:30 AM 58.8°F14.9°C 51.3°F10.7°C 76% 1.2 mph SSW1.9 kmh SSW 1.2 mph1.9 kmh 30.24 in1024.0 mb - 0.00 in0.0 mm 0.00 in0.0 mm
01:40 AM 58.8°F14.9°C 51.6°F10.9°C 77% 1.2 mph SW1.9 kmh SW 3.5 mph5.6 kmh 30.24 in1024.0 mb - 0.00 in0.0 mm 0.00 in0.0 mm
01:50 AM 58.8°F14.9°C 51.6°F10.9°C 77% 1.2 mph SSW1.9 kmh SSW 1.2 mph1.9 kmh 30.24 in1024.0 mb - 0.00 in0.0 mm 0.00 in0.0 mm
02:00 AM 58.8°F14.9°C 52.0°F11.1°C 78% 1.2 mph S1.9 kmh S 1.2 mph1.9 kmh 30.24 in1024.0 mb - 0.00 in0.0 mm 0.00 in0.0 mm
02:10 AM 58.7°F14.8°C 51.9°F11.1°C 78% 1.2 mph SSW1.9 kmh SSW 1.2 mph1.9 kmh 30.24 in1024.0 mb - 0.00 in0.0 mm 0.00 in0.0 mm
02:20 AM 58.6°F14.8°C 51.8°F11.0°C 78% 1.2 mph S1.9 kmh S 2.3 mph3.7 kmh 30.23 in1023.7 mb - 0.00 in0.0 mm 0.00 in0.0 mm
02:30 AM 58.4°F14.7°C 51.9°F11.1°C 79% 2.3 mph S3.7 kmh S 2.3 mph3.7 kmh 30.23 in1023.7 mb - 0.00 in0.0 mm 0.00 in0.0 mm
02:40 AM 58.3°F14.6°C 51.8°F11.0°C 79% 2.3 mph S3.7 kmh S 3.5 mph5.6 kmh 30.24 in1024.0 mb - 0.00 in0.0 mm 0.00 in0.0 mm
02:50 AM 58.2°F14.6°C 52.1°F11.2°C 80% 2.3 mph S3.7 kmh S 3.5 mph5.6 kmh 30.23 in1023.7 mb - 0.00 in0.0 mm 0.00 in0.0 mm
03:00 AM 58.2°F14.6°C 52.1°F11.2°C 80% 1.2 mph S1.9 kmh S 2.3 mph3.7 kmh 30.23 in1023.7 mb - 0.00 in0.0 mm 0.00 in0.0 mm
03:10 AM 58.2°F14.6°C 52.4°F11.3°C 81% 2.3 mph S3.7 kmh S 3.5 mph5.6 kmh 30.23 in1023.7 mb - 0.00 in0.0 mm 0.00 in0.0 mm
03:20 AM 58.2°F14.6°C 52.7°F11.5°C 82% 2.3 mph S3.7 kmh S 3.5 mph5.6 kmh 30.23 in1023.7 mb - 0.00 in0.0 mm 0.00 in0.0 mm
03:30 AM 58.3°F14.6°C 52.8°F11.6°C 82% 1.2 mph SSW1.9 kmh SSW 3.5 mph5.6 kmh 30.23 in1023.7 mb - 0.00 in0.0 mm 0.00 in0.0 mm
03:40 AM 58.4°F14.7°C 52.9°F11.6°C 82% 1.2 mph SSW1.9 kmh SSW 3.5 mph5.6 kmh 30.23 in1023.7 mb - 0.00 in0.0 mm 0.00 in0.0 mm
03:50 AM 58.5°F14.7°C 53.0°F11.7°C 82% 2.3 mph S3.7 kmh S 5.8 mph9.3 kmh 30.23 in1023.7 mb - 0.00 in0.0 mm 0.00 in0.0 mm
04:00 AM 58.5°F14.7°C 53.0°F11.7°C 82% 3.5 mph S5.6 kmh S 5.8 mph9.3 kmh 30.22 in1023.4 mb - 0.00 in0.0 mm 0.00 in0.0 mm
04:10 AM 58.5°F14.7°C 53.0°F11.7°C 82% 3.5 mph S5.6 kmh S 5.8 mph9.3 kmh 30.22 in1023.4 mb - 0.00 in0.0 mm 0.00 in0.0 mm
04:20 AM 58.4°F14.7°C 52.9°F11.6°C 82% 2.3 mph S3.7 kmh S 5.8 mph9.3 kmh 30.22 in1023.4 mb - 0.00 in0.0 mm 0.00 in0.0 mm
04:30 AM 58.4°F14.7°C 52.9°F11.6°C 82% 2.3 mph S3.7 kmh S 3.5 mph5.6 kmh 30.22 in1023.4 mb - 0.00 in0.0 mm 0.00 in0.0 mm
04:40 AM 58.4°F14.7°C 52.9°F11.6°C 82% 2.3 mph SSW3.7 kmh SSW 3.5 mph5.6 kmh 30.22 in1023.4 mb - 0.00 in0.0 mm 0.00 in0.0 mm
04:50 AM 58.4°F14.7°C 52.9°F11.6°C 82% 2.3 mph SSW3.7 kmh SSW 3.5 mph5.6 kmh 30.22 in1023.4 mb - 0.00 in0.0 mm 0.00 in0.0 mm
05:00 AM 58.4°F14.7°C 52.9°F11.6°C 82% 2.3 mph SSW3.7 kmh SSW 2.3 mph3.7 kmh 30.22 in1023.4 mb - 0.00 in0.0 mm 0.00 in0.0 mm
05:10 AM 58.5°F14.7°C 53.0°F11.7°C 82% 1.2 mph SSW1.9 kmh SSW 2.3 mph3.7 kmh 30.22 in1023.4 mb - 0.00 in0.0 mm 0.00 in0.0 mm
05:20 AM 58.6°F14.8°C 53.1°F11.7°C 82% 1.2 mph S1.9 kmh S 3.5 mph5.6 kmh 30.22 in1023.4 mb - 0.00 in0.0 mm 0.00 in0.0 mm
05:30 AM 58.8°F14.9°C 53.6°F12.0°C 83% 3.5 mph S5.6 kmh S 4.6 mph7.4 kmh 30.22 in1023.4 mb - 0.00 in0.0 mm 0.00 in0.0 mm
05:40 AM 58.8°F14.9°C 53.3°F11.8°C 82% 2.3 mph S3.7 kmh S 3.5 mph5.6 kmh 30.22 in1023.4 mb - 0.00 in0.0 mm 0.00 in0.0 mm
05:50 AM 58.8°F14.9°C 53.3°F11.8°C 82% 1.2 mph S1.9 kmh S 3.5 mph5.6 kmh 30.22 in1023.4 mb - 0.00 in0.0 mm 0.00 in0.0 mm
06:00 AM 58.9°F14.9°C 53.4°F11.9°C 82% 4.6 mph S7.4 kmh S 6.9 mph11.1 kmh 30.22 in1023.4 mb - 0.00 in0.0 mm 0.00 in0.0 mm
06:10 AM 59.0°F15.0°C 53.5°F11.9°C 82% 2.3 mph S3.7 kmh S 3.5 mph5.6 kmh 30.22 in1023.4 mb - 0.00 in0.0 mm 0.00 in0.0 mm
06:20 AM 59.1°F15.1°C 53.6°F12.0°C 82% 2.3 mph S3.7 kmh S 3.5 mph5.6 kmh 30.22 in1023.4 mb - 0.00 in0.0 mm 0.00 in0.0 mm
06:30 AM 59.2°F15.1°C 53.7°F12.1°C 82% 1.2 mph S1.9 kmh S 3.5 mph5.6 kmh 30.23 in1023.7 mb - 0.00 in0.0 mm 0.00 in0.0 mm
06:40 AM 59.4°F15.2°C 53.9°F12.2°C 82% 1.2 mph S1.9 kmh S 3.5 mph5.6 kmh 30.23 in1023.7 mb - 0.00 in0.0 mm 0.00 in0.0 mm
06:50 AM 59.7°F15.4°C 54.5°F12.5°C 83% 2.3 mph S3.7 kmh S 3.5 mph5.6 kmh 30.23 in1023.7 mb - 0.00 in0.0 mm 0.00 in0.0 mm
07:00 AM 60.1°F15.6°C 54.9°F12.7°C 83% 2.3 mph S3.7 kmh S 2.3 mph3.7 kmh 30.23 in1023.7 mb - 0.00 in0.0 mm 0.00 in0.0 mm
07:10 AM 60.6°F15.9°C 55.4°F13.0°C 83% 1.2 mph S1.9 kmh S 3.5 mph5.6 kmh 30.23 in1023.7 mb - 0.00 in0.0 mm 0.00 in0.0 mm
07:20 AM 61.0°F16.1°C 55.8°F13.2°C 83% 2.3 mph SE3.7 kmh SE 2.3 mph3.7 kmh 30.24 in1024.0 mb - 0.00 in0.0 mm 0.00 in0.0 mm
07:30 AM 61.6°F16.4°C 56.4°F13.6°C 83% 1.2 mph SSE1.9 kmh SSE 1.2 mph1.9 kmh 30.24 in1024.0 mb - 0.00 in0.0 mm 0.00 in0.0 mm
07:40 AM 62.0°F16.7°C 56.8°F13.8°C 83% 1.2 mph S1.9 kmh S 2.3 mph3.7 kmh 30.24 in1024.0 mb - 0.00 in0.0 mm 0.00 in0.0 mm
07:50 AM 62.6°F17.0°C 57.0°F13.9°C 82% Calm Calm 1.2 mph1.9 kmh 30.24 in1024.0 mb - 0.00 in0.0 mm 0.00 in0.0 mm
08:00 AM 63.2°F17.3°C 57.6°F14.2°C 82% 1.2 mph S1.9 kmh S 2.3 mph3.7 kmh 30.24 in1024.0 mb - 0.00 in0.0 mm 0.00 in0.0 mm
08:10 AM 63.8°F17.7°C 58.2°F14.6°C 82% Calm Calm -- 30.24 in1024.0 mb - 0.00 in0.0 mm 0.00 in0.0 mm
08:20 AM 64.3°F17.9°C 58.3°F14.6°C 81% 1.2 mph ESE1.9 kmh ESE 3.5 mph5.6 kmh 30.25 in1024.4 mb - 0.00 in0.0 mm 0.00 in0.0 mm
08:30 AM 64.9°F18.3°C 58.9°F14.9°C 81% 2.3 mph E3.7 kmh E 3.5 mph5.6 kmh 30.25 in1024.4 mb - 0.00 in0.0 mm 0.00 in0.0 mm
08:40 AM 65.3°F18.5°C 59.0°F15.0°C 80% 1.2 mph E1.9 kmh E 2.3 mph3.7 kmh 30.25 in1024.4 mb - 0.00 in0.0 mm 0.00 in0.0 mm
08:50 AM 65.7°F18.7°C 59.4°F15.2°C 80% 1.2 mph E1.9 kmh E 2.3 mph3.7 kmh 30.25 in1024.4 mb - 0.00 in0.0 mm 0.00 in0.0 mm
09:00 AM 66.1°F18.9°C 59.0°F15.0°C 78% 2.3 mph SE3.7 kmh SE 3.5 mph5.6 kmh 30.26 in1024.7 mb - 0.00 in0.0 mm 0.00 in0.0 mm
09:10 AM 66.5°F19.2°C 59.4°F15.2°C 78% 2.3 mph SE3.7 kmh SE 3.5 mph5.6 kmh 30.25 in1024.4 mb - 0.00 in0.0 mm 0.00 in0.0 mm
09:20 AM 66.9°F19.4°C 59.5°F15.3°C 77% 1.2 mph E1.9 kmh E 2.3 mph3.7 kmh 30.25 in1024.4 mb - 0.00 in0.0 mm 0.00 in0.0 mm
09:30 AM 67.2°F19.6°C 59.4°F15.2°C 76% 2.3 mph E3.7 kmh E 2.3 mph3.7 kmh 30.26 in1024.7 mb - 0.00 in0.0 mm 0.00 in0.0 mm
09:40 AM 68.0°F20.0°C 60.1°F15.6°C 76% 3.5 mph E5.6 kmh E 5.8 mph9.3 kmh 30.25 in1024.4 mb - 0.00 in0.0 mm 0.00 in0.0 mm
09:50 AM 68.7°F20.4°C 60.1°F15.6°C 74% 2.3 mph E3.7 kmh E 3.5 mph5.6 kmh 30.25 in1024.4 mb - 0.00 in0.0 mm 0.00 in0.0 mm
10:00 AM 69.6°F20.9°C 60.6°F15.9°C 73% 3.5 mph E5.6 kmh E 4.6 mph7.4 kmh 30.25 in1024.4 mb - 0.00 in0.0 mm 0.00 in0.0 mm
10:10 AM 70.6°F21.4°C 60.8°F16.0°C 71% 2.3 mph E3.7 kmh E 3.5 mph5.6 kmh 30.25 in1024.4 mb - 0.00 in0.0 mm 0.00 in0.0 mm
10:20 AM 71.7°F22.1°C 61.0°F16.1°C 69% 3.5 mph E5.6 kmh E 8.1 mph13.0 kmh 30.25 in1024.4 mb - 0.00 in0.0 mm 0.00 in0.0 mm
10:30 AM 72.8°F22.7°C 61.6°F16.4°C 68% 2.3 mph E3.7 kmh E 6.9 mph11.1 kmh 30.25 in1024.4 mb - 0.00 in0.0 mm 0.00 in0.0 mm
10:40 AM 73.8°F23.2°C 61.7°F16.5°C 66% 5.8 mph NE9.3 kmh NE 6.9 mph11.1 kmh 30.25 in1024.4 mb - 0.00 in0.0 mm 0.00 in0.0 mm
10:50 AM 74.6°F23.7°C 61.6°F16.4°C 64% 3.5 mph NE5.6 kmh NE 9.2 mph14.8 kmh 30.24 in1024.0 mb - 0.00 in0.0 mm 0.00 in0.0 mm
11:00 AM 75.4°F24.1°C 61.9°F16.6°C 63% 2.3 mph NE3.7 kmh NE 8.1 mph13.0 kmh 30.24 in1024.0 mb - 0.00 in0.0 mm 0.00 in0.0 mm
11:10 AM 76.2°F24.6°C 62.2°F16.8°C 62% 2.3 mph ESE3.7 kmh ESE 5.8 mph9.3 kmh 30.24 in1024.0 mb - 0.00 in0.0 mm 0.00 in0.0 mm
11:20 AM 76.8°F24.9°C 61.9°F16.6°C 60% 5.8 mph NE9.3 kmh NE 8.1 mph13.0 kmh 30.24 in1024.0 mb - 0.00 in0.0 mm 0.00 in0.0 mm
11:30 AM 76.3°F24.6°C 61.4°F16.3°C 60% 1.2 mph NE1.9 kmh NE 3.5 mph5.6 kmh 30.24 in1024.0 mb - 0.00 in0.0 mm 0.00 in0.0 mm
11:40 AM 76.3°F24.6°C 61.9°F16.6°C 61% 9.2 mph ENE14.8 kmh ENE 11.5 mph18.5 kmh 30.24 in1024.0 mb - 0.00 in0.0 mm 0.00 in0.0 mm
11:50 AM 76.9°F24.9°C 62.0°F16.7°C 60% 6.9 mph ENE11.1 kmh ENE 11.5 mph18.5 kmh 30.24 in1024.0 mb - 0.00 in0.0 mm 0.00 in0.0 mm
12:00 PM 77.4°F25.2°C 62.4°F16.9°C 60% 3.5 mph E5.6 kmh E 4.6 mph7.4 kmh 30.23 in1023.7 mb - 0.00 in0.0 mm 0.00 in0.0 mm
12:10 PM 78.2°F25.7°C 62.2°F16.8°C 58% 3.5 mph NE5.6 kmh NE 3.5 mph5.6 kmh 30.23 in1023.7 mb - 0.00 in0.0 mm 0.00 in0.0 mm
12:20 PM 78.5°F25.8°C 62.5°F16.9°C 58% 4.6 mph NE7.4 kmh NE 8.1 mph13.0 kmh 30.23 in1023.7 mb - 0.00 in0.0 mm 0.00 in0.0 mm
12:30 PM 78.8°F26.0°C 62.3°F16.8°C 57% 3.5 mph NE5.6 kmh NE 9.2 mph14.8 kmh 30.23 in1023.7 mb - 0.00 in0.0 mm 0.00 in0.0 mm
12:40 PM 78.6°F25.9°C 62.0°F16.7°C 57% 5.8 mph NE9.3 kmh NE 11.5 mph18.5 kmh 30.22 in1023.4 mb - 0.00 in0.0 mm 0.00 in0.0 mm
12:50 PM 78.1°F25.6°C 61.7°F16.5°C 57% 8.1 mph ENE13.0 kmh ENE 11.5 mph18.5 kmh 30.22 in1023.4 mb - 0.00 in0.0 mm 0.00 in0.0 mm
01:00 PM 77.6°F25.3°C 62.1°F16.7°C 59% 4.6 mph NNE7.4 kmh NNE 4.6 mph7.4 kmh 30.22 in1023.4 mb - 0.00 in0.0 mm 0.00 in0.0 mm
01:10 PM 77.6°F25.3°C 61.1°F16.2°C 57% 5.8 mph ENE9.3 kmh ENE 8.1 mph13.0 kmh 30.22 in1023.4 mb - 0.00 in0.0 mm 0.00 in0.0 mm
01:20 PM 77.6°F25.3°C 61.2°F16.2°C 57% 3.5 mph NE5.6 kmh NE 9.2 mph14.8 kmh 30.22 in1023.4 mb - 0.00 in0.0 mm 0.00 in0.0 mm
01:30 PM 77.7°F25.4°C 61.3°F16.3°C 57% 5.8 mph NE9.3 kmh NE 10.4 mph16.7 kmh 30.21 in1023.0 mb - 0.00 in0.0 mm 0.00 in0.0 mm
01:40 PM 78.2°F25.7°C 61.7°F16.5°C 57% 5.8 mph E9.3 kmh E 11.5 mph18.5 kmh 30.21 in1023.0 mb - 0.00 in0.0 mm 0.00 in0.0 mm
01:50 PM 78.6°F25.9°C 61.6°F16.4°C 56% 5.8 mph NE9.3 kmh NE 8.1 mph13.0 kmh 30.20 in1022.7 mb - 0.00 in0.0 mm 0.00 in0.0 mm
02:00 PM 78.5°F25.8°C 61.0°F16.1°C 55% 6.9 mph NE11.1 kmh NE 10.4 mph16.7 kmh 30.20 in1022.7 mb - 0.00 in0.0 mm 0.00 in0.0 mm
02:10 PM 78.1°F25.6°C 61.7°F16.5°C 57% 5.8 mph ENE9.3 kmh ENE 11.5 mph18.5 kmh 30.20 in1022.7 mb - 0.00 in0.0 mm 0.00 in0.0 mm
02:20 PM 78.4°F25.8°C 61.9°F16.6°C 57% 6.9 mph NE11.1 kmh NE 11.5 mph18.5 kmh 30.20 in1022.7 mb - 0.00 in0.0 mm 0.00 in0.0 mm
02:30 PM 78.3°F25.7°C 61.3°F16.3°C 56% 5.8 mph ENE9.3 kmh ENE 11.5 mph18.5 kmh 30.20 in1022.7 mb - 0.00 in0.0 mm 0.00 in0.0 mm
02:40 PM 77.6°F25.3°C 60.7°F15.9°C 56% 6.9 mph ENE11.1 kmh ENE 11.5 mph18.5 kmh 30.20 in1022.7 mb - 0.00 in0.0 mm 0.00 in0.0 mm
02:50 PM 77.7°F25.4°C 61.3°F16.3°C 57% 5.8 mph ENE9.3 kmh ENE 10.4 mph16.7 kmh 30.20 in1022.7 mb - 0.00 in0.0 mm 0.00 in0.0 mm
03:00 PM 77.6°F25.3°C 61.2°F16.2°C 57% 6.9 mph E11.1 kmh E 9.2 mph14.8 kmh 30.19 in1022.4 mb - 0.00 in0.0 mm 0.00 in0.0 mm
03:10 PM 77.9°F25.5°C 61.4°F16.3°C 57% 4.6 mph E7.4 kmh E 8.1 mph13.0 kmh 30.19 in1022.4 mb - 0.00 in0.0 mm 0.00 in0.0 mm
03:20 PM 77.7°F25.4°C 61.3°F16.3°C 57% 6.9 mph E11.1 kmh E 8.1 mph13.0 kmh 30.18 in1022.0 mb - 0.00 in0.0 mm 0.00 in0.0 mm
03:30 PM 77.5°F25.3°C 61.6°F16.4°C 58% 4.6 mph E7.4 kmh E 15.0 mph24.1 kmh 30.18 in1022.0 mb - 0.00 in0.0 mm 0.00 in0.0 mm
03:40 PM 77.3°F25.2°C 61.4°F16.3°C 58% 5.8 mph NE9.3 kmh NE 8.1 mph13.0 kmh 30.18 in1022.0 mb - 0.00 in0.0 mm 0.00 in0.0 mm
03:50 PM 76.9°F24.9°C 61.5°F16.4°C 59% 8.1 mph E13.0 kmh E 11.5 mph18.5 kmh 30.18 in1022.0 mb - 0.00 in0.0 mm 0.00 in0.0 mm
04:00 PM 76.8°F24.9°C 61.4°F16.3°C 59% 4.6 mph ENE7.4 kmh ENE 13.8 mph22.2 kmh 30.18 in1022.0 mb - 0.00 in0.0 mm 0.00 in0.0 mm
04:10 PM 76.2°F24.6°C 61.3°F16.3°C 60% 6.9 mph E11.1 kmh E 17.3 mph27.8 kmh 30.17 in1021.7 mb - 0.00 in0.0 mm 0.00 in0.0 mm
04:20 PM 75.8°F24.3°C 61.4°F16.3°C 61% 4.6 mph E7.4 kmh E 11.5 mph18.5 kmh 30.17 in1021.7 mb - 0.00 in0.0 mm 0.00 in0.0 mm
04:30 PM 75.5°F24.2°C 61.1°F16.2°C 61% 4.6 mph ENE7.4 kmh ENE 12.7 mph20.4 kmh 30.18 in1022.0 mb - 0.00 in0.0 mm 0.00 in0.0 mm
04:40 PM 74.8°F23.8°C 60.5°F15.8°C 61% 6.9 mph NE11.1 kmh NE 15.0 mph24.1 kmh 30.17 in1021.7 mb - 0.00 in0.0 mm 0.00 in0.0 mm
04:50 PM 74.3°F23.5°C 60.9°F16.1°C 63% 5.8 mph E9.3 kmh E 15.0 mph24.1 kmh 30.17 in1021.7 mb - 0.00 in0.0 mm 0.00 in0.0 mm
05:00 PM 73.7°F23.2°C 60.3°F15.7°C 63% 6.9 mph E11.1 kmh E 9.2 mph14.8 kmh 30.17 in1021.7 mb - 0.00 in0.0 mm 0.00 in0.0 mm
05:10 PM 72.9°F22.7°C 60.5°F15.8°C 65% 6.9 mph NE11.1 kmh NE 9.2 mph14.8 kmh 30.17 in1021.7 mb - 0.00 in0.0 mm 0.00 in0.0 mm
05:20 PM 72.5°F22.5°C 60.1°F15.6°C 65% 3.5 mph ENE5.6 kmh ENE 11.5 mph18.5 kmh 30.17 in1021.7 mb - 0.00 in0.0 mm 0.00 in0.0 mm
05:30 PM 72.3°F22.4°C 60.3°F15.7°C 66% 6.9 mph ENE11.1 kmh ENE 13.8 mph22.2 kmh 30.17 in1021.7 mb - 0.00 in0.0 mm 0.00 in0.0 mm
05:40 PM 71.8°F22.1°C 60.2°F15.7°C 67% 4.6 mph ENE7.4 kmh ENE 10.4 mph16.7 kmh 30.17 in1021.7 mb - 0.00 in0.0 mm 0.00 in0.0 mm
05:50 PM 71.5°F21.9°C 60.4°F15.8°C 68% 6.9 mph ENE11.1 kmh ENE 11.5 mph18.5 kmh 30.17 in1021.7 mb - 0.00 in0.0 mm 0.00 in0.0 mm
06:00 PM 71.2°F21.8°C 60.1°F15.6°C 68% 5.8 mph E9.3 kmh E 10.4 mph16.7 kmh 30.17 in1021.7 mb - 0.00 in0.0 mm 0.00 in0.0 mm
06:10 PM 70.9°F21.6°C 60.2°F15.7°C 69% 3.5 mph E5.6 kmh E 4.6 mph7.4 kmh 30.17 in1021.7 mb - 0.00 in0.0 mm 0.00 in0.0 mm
06:20 PM 70.5°F21.4°C 59.8°F15.4°C 69% 4.6 mph E7.4 kmh E 8.1 mph13.0 kmh 30.17 in1021.7 mb - 0.00 in0.0 mm 0.00 in0.0 mm
06:30 PM 70.1°F21.2°C 59.9°F15.5°C 70% 6.9 mph ENE11.1 kmh ENE 9.2 mph14.8 kmh 30.17 in1021.7 mb - 0.00 in0.0 mm 0.00 in0.0 mm
06:40 PM 69.7°F20.9°C 59.9°F15.5°C 71% 5.8 mph E9.3 kmh E 5.8 mph9.3 kmh 30.17 in1021.7 mb - 0.00 in0.0 mm 0.00 in0.0 mm
06:50 PM 69.2°F20.7°C 59.4°F15.2°C 71% 5.8 mph E9.3 kmh E 10.4 mph16.7 kmh 30.18 in1022.0 mb - 0.00 in0.0 mm 0.00 in0.0 mm
07:00 PM 68.8°F20.4°C 59.4°F15.2°C 72% 6.9 mph E11.1 kmh E 9.2 mph14.8 kmh 30.18 in1022.0 mb - 0.00 in0.0 mm 0.00 in0.0 mm
07:10 PM 68.5°F20.3°C 59.1°F15.1°C 72% 5.8 mph E9.3 kmh E 8.1 mph13.0 kmh 30.18 in1022.0 mb - 0.00 in0.0 mm 0.00 in0.0 mm
07:20 PM 68.2°F20.1°C 59.2°F15.1°C 73% 3.5 mph ENE5.6 kmh ENE 4.6 mph7.4 kmh 30.18 in1022.0 mb - 0.00 in0.0 mm 0.00 in0.0 mm
07:30 PM 67.8°F19.9°C 59.2°F15.1°C 74% 6.9 mph E11.1 kmh E 9.2 mph14.8 kmh 30.18 in1022.0 mb - 0.00 in0.0 mm 0.00 in0.0 mm
07:40 PM 67.5°F19.7°C 58.9°F14.9°C 74% 4.6 mph ENE7.4 kmh ENE 4.6 mph7.4 kmh 30.19 in1022.4 mb - 0.00 in0.0 mm 0.00 in0.0 mm
07:50 PM 67.1°F19.5°C 58.9°F14.9°C 75% 4.6 mph E7.4 kmh E 5.8 mph9.3 kmh 30.19 in1022.4 mb - 0.00 in0.0 mm 0.00 in0.0 mm
08:00 PM 66.8°F19.3°C 59.0°F15.0°C 76% 4.6 mph E7.4 kmh E 10.4 mph16.7 kmh 30.19 in1022.4 mb - 0.00 in0.0 mm 0.00 in0.0 mm
08:10 PM 66.5°F19.2°C 59.4°F15.2°C 78% 3.5 mph E5.6 kmh E 5.8 mph9.3 kmh 30.19 in1022.4 mb - 0.00 in0.0 mm 0.00 in0.0 mm
08:20 PM 66.1°F18.9°C 59.1°F15.1°C 78% 3.5 mph NE5.6 kmh NE 10.4 mph16.7 kmh 30.20 in1022.7 mb - 0.00 in0.0 mm 0.00 in0.0 mm
08:30 PM 65.9°F18.8°C 59.2°F15.1°C 79% 4.6 mph ENE7.4 kmh ENE 6.9 mph11.1 kmh 30.19 in1022.4 mb - 0.00 in0.0 mm 0.00 in0.0 mm
08:40 PM 65.6°F18.7°C 59.2°F15.1°C 80% 4.6 mph E7.4 kmh E 9.2 mph14.8 kmh 30.20 in1022.7 mb - 0.00 in0.0 mm 0.00 in0.0 mm
08:50 PM 65.2°F18.4°C 59.2°F15.1°C 81% 4.6 mph E7.4 kmh E 6.9 mph11.1 kmh 30.20 in1022.7 mb - 0.00 in0.0 mm 0.00 in0.0 mm
09:00 PM 65.0°F18.3°C 59.1°F15.1°C 81% 3.5 mph E5.6 kmh E 4.6 mph7.4 kmh 30.20 in1022.7 mb - 0.00 in0.0 mm 0.00 in0.0 mm
09:10 PM 64.9°F18.3°C 59.3°F15.2°C 82% 3.5 mph E5.6 kmh E 8.1 mph13.0 kmh 30.20 in1022.7 mb - 0.00 in0.0 mm 0.00 in0.0 mm
09:20 PM 64.8°F18.2°C 59.5°F15.3°C 83% 4.6 mph NE7.4 kmh NE 8.1 mph13.0 kmh 30.21 in1023.0 mb - 0.00 in0.0 mm 0.00 in0.0 mm
09:30 PM 64.7°F18.2°C 59.4°F15.2°C 83% 1.2 mph E1.9 kmh E 2.3 mph3.7 kmh 30.21 in1023.0 mb - 0.00 in0.0 mm 0.00 in0.0 mm
09:40 PM 64.6°F18.1°C 59.7°F15.4°C 84% 3.5 mph ENE5.6 kmh ENE 4.6 mph7.4 kmh 30.20 in1022.7 mb - 0.00 in0.0 mm 0.00 in0.0 mm
09:50 PM 64.5°F18.1°C 59.6°F15.3°C 84% 2.3 mph E3.7 kmh E 5.8 mph9.3 kmh 30.21 in1023.0 mb - 0.00 in0.0 mm 0.00 in0.0 mm
10:00 PM 64.5°F18.1°C 59.5°F15.3°C 84% 3.5 mph ENE5.6 kmh ENE 5.8 mph9.3 kmh 30.20 in1022.7 mb - 0.00 in0.0 mm 0.00 in0.0 mm
10:10 PM 64.4°F18.0°C 59.5°F15.3°C 84% 4.6 mph E7.4 kmh E 5.8 mph9.3 kmh 30.20 in1022.7 mb - 0.00 in0.0 mm 0.00 in0.0 mm
10:20 PM 64.4°F18.0°C 59.8°F15.4°C 85% 2.3 mph E3.7 kmh E 3.5 mph5.6 kmh 30.20 in1022.7 mb - 0.00 in0.0 mm 0.00 in0.0 mm
10:30 PM 64.4°F18.0°C 59.8°F15.4°C 85% 2.3 mph E3.7 kmh E 4.6 mph7.4 kmh 30.19 in1022.4 mb - 0.00 in0.0 mm 0.00 in0.0 mm
10:40 PM 64.4°F18.0°C 59.8°F15.4°C 85% 2.3 mph ENE3.7 kmh ENE 3.5 mph5.6 kmh 30.19 in1022.4 mb - 0.00 in0.0 mm 0.00 in0.0 mm
10:50 PM 64.5°F18.1°C 59.9°F15.5°C 85% 4.6 mph E7.4 kmh E 8.1 mph13.0 kmh 30.19 in1022.4 mb - 0.00 in0.0 mm 0.00 in0.0 mm
11:00 PM 64.4°F18.0°C 59.8°F15.4°C 85% Calm Calm 1.2 mph1.9 kmh 30.19 in1022.4 mb - 0.00 in0.0 mm 0.00 in0.0 mm
11:10 PM 64.5°F18.1°C 59.9°F15.5°C 85% 3.5 mph E5.6 kmh E 8.1 mph13.0 kmh 30.19 in1022.4 mb - 0.00 in0.0 mm 0.00 in0.0 mm
11:20 PM 64.5°F18.1°C 59.9°F15.5°C 85% 2.3 mph ESE3.7 kmh ESE 6.9 mph11.1 kmh 30.19 in1022.4 mb - 0.00 in0.0 mm 0.00 in0.0 mm
11:30 PM 64.5°F18.1°C 60.2°F15.7°C 86% 2.3 mph E3.7 kmh E 3.5 mph5.6 kmh 30.19 in1022.4 mb - 0.00 in0.0 mm 0.00 in0.0 mm
11:40 PM 64.5°F18.1°C 60.2°F15.7°C 86% 3.5 mph E5.6 kmh E 3.5 mph5.6 kmh 30.18 in1022.0 mb - 0.00 in0.0 mm 0.00 in0.0 mm
11:50 PM 64.5°F18.1°C 60.2°F15.7°C 86% 3.5 mph E5.6 kmh E 5.8 mph9.3 kmh 30.18 in1022.0 mb - 0.00 in0.0 mm 0.00 in0.0 mm